createdAt,value
2023-05-02T00:01:50.324Z,9.50
2023-05-02T00:04:17.490Z,9.50
2023-05-02T00:06:46.783Z,9.60
2023-05-02T00:09:15.763Z,9.60
2023-05-02T00:11:42.868Z,9.70
2023-05-02T00:14:10.000Z,9.70
2023-05-02T00:16:37.133Z,9.70
2023-05-02T00:19:04.315Z,9.70
2023-05-02T00:21:31.505Z,9.70
2023-05-02T00:23:58.844Z,9.70
2023-05-02T00:26:26.976Z,9.70
2023-05-02T00:28:54.064Z,9.60
2023-05-02T00:31:21.100Z,9.70
2023-05-02T00:33:48.109Z,9.60
2023-05-02T00:36:16.556Z,9.60
2023-05-02T00:38:43.866Z,9.50
2023-05-02T00:41:11.087Z,9.50
2023-05-02T00:43:41.436Z,9.40
2023-05-02T00:46:08.835Z,9.40
2023-05-02T00:48:36.704Z,9.40
2023-05-02T00:51:09.138Z,9.30
2023-05-02T00:53:36.814Z,9.30
2023-05-02T00:56:04.124Z,9.30
2023-05-02T00:58:31.428Z,9.20
2023-05-02T01:01:19.657Z,9.20
2023-05-02T01:04:17.453Z,9.20
2023-05-02T01:07:17.928Z,9.10
2023-05-02T01:10:16.765Z,9.10
2023-05-02T01:12:47.632Z,9.10
2023-05-02T01:15:20.767Z,9.00
2023-05-02T01:17:49.858Z,9.10
2023-05-02T01:20:23.771Z,9.10
2023-05-02T01:22:51.653Z,9.10
2023-05-02T01:25:41.739Z,9.10
2023-05-02T01:28:14.429Z,9.10
2023-05-02T01:30:44.865Z,9.10
2023-05-02T01:33:15.139Z,9.10
2023-05-02T01:35:45.016Z,9.10
2023-05-02T01:38:16.848Z,9.10
2023-05-02T01:40:47.002Z,9.10
2023-05-02T01:43:15.910Z,9.10
2023-05-02T01:45:47.414Z,9.00
2023-05-02T01:48:16.443Z,9.00
2023-05-02T01:50:45.851Z,9.00
2023-05-02T01:53:15.407Z,9.00
2023-05-02T01:55:46.036Z,9.00
2023-05-02T01:58:14.873Z,9.00
2023-05-02T02:00:45.341Z,9.00
2023-05-02T02:03:13.330Z,9.00
2023-05-02T02:05:41.874Z,9.00
2023-05-02T02:08:09.305Z,9.00
2023-05-02T02:10:41.231Z,8.90
2023-05-02T02:13:18.256Z,8.90
2023-05-02T02:15:49.321Z,8.90
2023-05-02T02:18:22.358Z,8.90
2023-05-02T02:20:51.407Z,8.80
2023-05-02T02:23:21.153Z,8.80
2023-05-02T02:25:49.594Z,8.80
2023-05-02T02:28:16.661Z,8.80
2023-05-02T02:30:44.195Z,8.80
2023-05-02T02:33:11.299Z,8.80
2023-05-02T02:35:42.869Z,8.80
2023-05-02T02:38:16.215Z,8.80
2023-05-02T02:40:53.344Z,8.80
2023-05-02T02:43:29.375Z,8.80
2023-05-02T02:46:50.392Z,8.80
2023-05-02T02:49:35.111Z,8.70
2023-05-02T02:52:17.880Z,8.70
2023-05-02T02:54:52.699Z,8.80
2023-05-02T02:57:29.146Z,8.70
2023-05-02T02:59:56.126Z,8.70
2023-05-02T03:02:29.572Z,8.70
2023-05-02T03:04:57.953Z,8.70
2023-05-02T03:07:28.915Z,8.70
2023-05-02T03:09:56.077Z,8.60
2023-05-02T03:12:23.247Z,8.70
2023-05-02T03:14:51.155Z,8.60
2023-05-02T03:17:18.684Z,8.60
2023-05-02T03:19:46.004Z,8.70
2023-05-02T03:22:13.062Z,8.60
2023-05-02T03:24:40.087Z,8.60
2023-05-02T03:27:07.335Z,8.60
2023-05-02T03:29:34.381Z,8.60
2023-05-02T03:32:01.454Z,8.60
2023-05-02T03:34:28.852Z,8.60
2023-05-02T03:36:55.957Z,8.60
2023-05-02T03:39:22.976Z,8.60
2023-05-02T03:41:50.097Z,8.60
2023-05-02T03:44:17.266Z,8.60
2023-05-02T03:46:44.544Z,8.60
2023-05-02T03:49:12.218Z,8.60
2023-05-02T03:51:39.452Z,8.60
2023-05-02T03:54:07.649Z,8.60
2023-05-02T03:56:34.700Z,8.60
2023-05-02T03:59:01.808Z,8.60
2023-05-02T04:01:29.111Z,8.60
2023-05-02T04:03:56.170Z,8.60
2023-05-02T04:06:23.405Z,8.60
2023-05-02T04:08:50.442Z,8.60
2023-05-02T04:11:17.474Z,8.60
2023-05-02T04:13:44.509Z,8.60
2023-05-02T04:16:11.549Z,8.70
2023-05-02T04:18:38.696Z,8.60
2023-05-02T04:21:10.017Z,8.70
2023-05-02T04:23:37.136Z,8.70
2023-05-02T04:26:04.205Z,8.70
2023-05-02T04:28:31.339Z,8.70
2023-05-02T04:30:58.525Z,8.70
2023-05-02T04:33:25.880Z,8.70
2023-05-02T04:35:54.481Z,8.70
2023-05-02T04:38:21.750Z,8.70
2023-05-02T04:40:52.458Z,8.80
2023-05-02T04:43:19.520Z,8.70
2023-05-02T04:45:46.704Z,8.70
2023-05-02T04:48:14.198Z,8.70
2023-05-02T04:50:41.272Z,8.80
2023-05-02T04:53:08.367Z,8.80
2023-05-02T04:55:35.425Z,8.80
2023-05-02T04:58:02.581Z,8.80
2023-05-02T05:00:29.640Z,8.80
2023-05-02T05:02:59.137Z,8.90
2023-05-02T05:05:27.255Z,8.90
2023-05-02T05:07:54.408Z,8.90
2023-05-02T05:10:21.422Z,8.90
2023-05-02T05:12:49.555Z,8.90
2023-05-02T05:15:17.060Z,8.90
2023-05-02T05:17:44.484Z,8.90
2023-05-02T05:20:11.728Z,8.90
2023-05-02T05:22:39.758Z,9.00
2023-05-02T05:25:07.512Z,9.00
2023-05-02T05:27:35.418Z,9.10
2023-05-02T05:30:03.697Z,9.10
2023-05-02T05:32:30.948Z,9.10
2023-05-02T05:34:58.130Z,9.10
2023-05-02T05:37:25.313Z,9.10
2023-05-02T05:39:52.452Z,9.10
2023-05-02T05:42:19.502Z,9.10
2023-05-02T05:44:46.534Z,9.10
2023-05-02T05:47:18.973Z,9.10
2023-05-02T05:49:46.614Z,9.10
2023-05-02T05:52:13.599Z,9.10
2023-05-02T05:54:40.832Z,9.10
2023-05-02T05:57:07.850Z,9.10
2023-05-02T05:59:36.546Z,9.10
2023-05-02T06:02:05.090Z,9.10
2023-05-02T06:04:33.096Z,9.10
2023-05-02T06:07:00.402Z,9.10
2023-05-02T06:09:27.470Z,9.20
2023-05-02T06:11:55.420Z,9.20
2023-05-02T06:14:22.612Z,9.20
2023-05-02T06:16:49.662Z,9.30
2023-05-02T06:19:16.722Z,9.20
2023-05-02T06:21:43.770Z,9.30
2023-05-02T06:24:10.949Z,9.40
2023-05-02T06:26:37.980Z,9.40
2023-05-02T06:29:05.070Z,9.50
2023-05-02T06:31:32.113Z,9.60
2023-05-02T06:33:59.204Z,9.60
2023-05-02T06:36:26.212Z,9.70
2023-05-02T06:38:53.258Z,9.80
2023-05-02T06:41:20.927Z,9.80
2023-05-02T06:43:48.080Z,9.70
2023-05-02T06:46:15.429Z,9.70
2023-05-02T06:48:42.519Z,9.70
2023-05-02T06:51:09.568Z,9.70
2023-05-02T06:53:36.624Z,9.70
2023-05-02T06:56:03.843Z,9.60
2023-05-02T06:58:31.062Z,9.60
2023-05-02T07:00:58.226Z,9.60
2023-05-02T07:03:25.331Z,9.60
2023-05-02T07:05:52.310Z,9.60
2023-05-02T07:08:21.626Z,9.60
2023-05-02T07:10:48.691Z,9.60
2023-05-02T07:13:15.862Z,9.60
2023-05-02T07:15:43.521Z,9.60
2023-05-02T07:18:11.502Z,9.60
2023-05-02T07:20:39.145Z,9.70
2023-05-02T07:23:06.240Z,9.70
2023-05-02T07:25:33.366Z,9.60
2023-05-02T07:28:00.475Z,9.50
2023-05-02T07:30:27.503Z,9.50
2023-05-02T07:32:54.563Z,9.40
2023-05-02T07:35:21.823Z,9.40
2023-05-02T07:37:49.050Z,9.50
2023-05-02T07:40:16.214Z,9.60
2023-05-02T07:42:44.418Z,9.60
2023-05-02T07:45:11.718Z,9.60
2023-05-02T07:47:38.853Z,9.70
2023-05-02T07:50:07.003Z,9.70
2023-05-02T07:52:34.165Z,9.70
2023-05-02T07:55:01.171Z,9.70
2023-05-02T07:57:28.248Z,9.70
2023-05-02T07:59:57.470Z,9.80
2023-05-02T08:02:25.130Z,9.60
2023-05-02T08:04:52.611Z,9.50
2023-05-02T08:07:19.747Z,9.60
2023-05-02T08:09:46.876Z,9.70
2023-05-02T08:12:13.882Z,9.70
2023-05-02T08:14:40.974Z,9.90
2023-05-02T08:17:08.012Z,10.10
2023-05-02T08:19:35.170Z,10.40
2023-05-02T08:22:02.301Z,10.50
2023-05-02T08:24:31.063Z,10.50
2023-05-02T08:26:58.163Z,10.60
2023-05-02T08:29:25.323Z,10.60
2023-05-02T08:31:52.423Z,10.50
2023-05-02T08:34:19.586Z,10.30
2023-05-02T08:36:47.594Z,10.30
2023-05-02T08:39:14.707Z,10.40
2023-05-02T08:41:41.938Z,10.50
2023-05-02T08:44:09.125Z,10.50
2023-05-02T08:46:38.455Z,10.60
2023-05-02T08:49:06.852Z,10.80
2023-05-02T08:51:36.301Z,11.00
2023-05-02T08:54:04.433Z,11.20
2023-05-02T08:56:32.829Z,11.30
2023-05-02T08:58:59.853Z,11.20
2023-05-02T09:01:31.259Z,11.10
2023-05-02T09:03:59.811Z,11.10
2023-05-02T09:06:30.289Z,11.30
2023-05-02T09:09:00.712Z,11.20
2023-05-02T09:11:27.941Z,11.40
2023-05-02T09:13:56.205Z,11.30
2023-05-02T09:16:25.889Z,11.40
2023-05-02T09:18:56.018Z,11.20
2023-05-02T09:21:25.599Z,11.00
2023-05-02T09:23:56.608Z,10.90
2023-05-02T09:26:37.515Z,11.10
2023-05-02T09:29:05.590Z,11.20
2023-05-02T09:31:54.789Z,11.10
2023-05-02T09:34:23.157Z,11.00
2023-05-02T09:36:54.063Z,10.90
2023-05-02T09:39:25.587Z,10.70
2023-05-02T09:41:53.480Z,10.70
2023-05-02T09:44:23.195Z,10.60
2023-05-02T09:46:55.235Z,10.50
2023-05-02T09:49:42.725Z,10.30
2023-05-02T09:52:14.723Z,10.20
2023-05-02T09:54:42.266Z,10.20
2023-05-02T09:57:11.218Z,10.00
2023-05-02T09:59:39.991Z,10.00
2023-05-02T10:02:09.805Z,10.10
2023-05-02T10:04:37.777Z,10.00
2023-05-02T10:07:06.754Z,10.10
2023-05-02T10:09:37.241Z,10.20
2023-05-02T10:12:05.351Z,10.20
2023-05-02T10:14:39.719Z,10.20
2023-05-02T10:17:16.219Z,10.10
2023-05-02T10:19:53.052Z,10.20
2023-05-02T10:22:21.326Z,10.30
2023-05-02T10:24:52.683Z,10.30
2023-05-02T10:27:20.052Z,10.20
2023-05-02T10:29:47.787Z,10.20
2023-05-02T10:32:18.265Z,10.20
2023-05-02T10:34:47.876Z,10.20
2023-05-02T10:37:16.323Z,10.30
2023-05-02T10:39:43.519Z,10.40
2023-05-02T10:42:11.103Z,10.60
2023-05-02T10:44:40.181Z,11.00
2023-05-02T10:47:27.892Z,11.20
2023-05-02T10:50:03.148Z,11.60
2023-05-02T10:52:41.609Z,11.80
2023-05-02T10:55:19.530Z,12.00
2023-05-02T10:58:01.249Z,12.30
2023-05-02T11:00:30.369Z,12.40
2023-05-02T11:02:57.967Z,12.40
2023-05-02T11:05:26.901Z,12.10
2023-05-02T11:08:23.155Z,12.00
2023-05-02T11:10:50.461Z,11.90
2023-05-02T11:13:37.462Z,11.80
2023-05-02T11:16:04.795Z,11.80
2023-05-02T11:19:01.472Z,11.70
2023-05-02T11:21:31.278Z,11.70
2023-05-02T11:24:35.902Z,11.80
2023-05-02T11:27:30.588Z,11.80
2023-05-02T11:30:02.944Z,11.70
2023-05-02T11:32:45.738Z,11.60
2023-05-02T11:35:23.591Z,11.30
2023-05-02T11:38:13.806Z,11.20
2023-05-02T11:40:41.367Z,11.40
2023-05-02T11:43:16.796Z,11.50
2023-05-02T11:45:44.116Z,12.10
2023-05-02T11:48:13.355Z,12.60
2023-05-02T11:50:50.196Z,12.80
2023-05-02T11:53:23.460Z,12.70
2023-05-02T11:55:56.065Z,12.70
2023-05-02T11:58:25.782Z,12.60
2023-05-02T12:00:53.927Z,12.60
2023-05-02T12:03:31.406Z,13.00
2023-05-02T12:06:11.352Z,13.40
2023-05-02T12:08:39.787Z,13.80
2023-05-02T12:11:07.491Z,13.50
2023-05-02T12:13:34.929Z,13.30
2023-05-02T12:16:02.619Z,13.10
2023-05-02T12:18:29.955Z,12.80
2023-05-02T12:20:57.154Z,12.40
2023-05-02T12:23:26.953Z,12.10
2023-05-02T12:25:54.336Z,12.00
2023-05-02T12:28:23.435Z,11.80
2023-05-02T12:30:51.741Z,11.80
2023-05-02T12:33:19.106Z,11.90
2023-05-02T12:35:47.677Z,11.90
2023-05-02T12:38:17.768Z,12.10
2023-05-02T12:41:03.231Z,12.30
2023-05-02T12:43:46.502Z,12.50
2023-05-02T12:46:13.597Z,12.70
2023-05-02T12:48:40.993Z,12.80
2023-05-02T12:51:22.100Z,13.10
2023-05-02T12:53:49.172Z,13.10
2023-05-02T12:56:17.224Z,12.90
2023-05-02T12:58:48.804Z,12.40
2023-05-02T13:01:16.159Z,12.00
2023-05-02T13:03:44.882Z,11.80
2023-05-02T13:06:15.156Z,11.80
2023-05-02T13:08:42.213Z,12.00
2023-05-02T13:11:09.361Z,12.20
2023-05-02T13:13:36.432Z,12.30
2023-05-02T13:16:05.266Z,12.60
2023-05-02T13:18:32.503Z,12.70
2023-05-02T13:20:59.610Z,13.00
2023-05-02T13:23:29.057Z,13.40
2023-05-02T13:25:56.159Z,13.80
2023-05-02T13:28:23.422Z,13.80
2023-05-02T13:30:51.237Z,13.90
2023-05-02T13:33:18.561Z,14.20
2023-05-02T13:35:45.671Z,14.40
2023-05-02T13:38:12.899Z,14.60
2023-05-02T13:40:39.965Z,14.80
2023-05-02T13:43:07.022Z,14.40
2023-05-02T13:45:37.148Z,14.10
2023-05-02T13:48:05.859Z,13.80
2023-05-02T13:50:37.537Z,13.80
2023-05-02T13:53:04.618Z,13.80
2023-05-02T13:55:31.852Z,13.60
2023-05-02T13:57:58.946Z,13.70
2023-05-02T14:00:28.429Z,14.00
2023-05-02T14:02:55.987Z,15.20
2023-05-02T14:05:23.177Z,14.90
2023-05-02T14:07:51.341Z,14.40
2023-05-02T14:10:18.431Z,14.80
2023-05-02T14:12:45.577Z,15.50
2023-05-02T14:15:12.871Z,16.20
2023-05-02T14:17:39.921Z,16.40
2023-05-02T14:20:10.893Z,16.80
2023-05-02T14:22:37.980Z,16.80
2023-05-02T14:25:06.136Z,17.00
2023-05-02T14:27:33.175Z,16.60
2023-05-02T14:30:00.661Z,16.00
2023-05-02T14:32:28.291Z,15.30
2023-05-02T14:34:55.396Z,14.80
2023-05-02T14:37:22.471Z,14.60
2023-05-02T14:39:54.896Z,15.00
2023-05-02T14:42:28.220Z,15.70
2023-05-02T14:44:57.460Z,16.40
2023-05-02T14:47:28.973Z,16.50
2023-05-02T14:49:56.071Z,16.00
2023-05-02T14:52:23.300Z,15.10
2023-05-02T14:54:50.279Z,15.10
2023-05-02T14:57:17.338Z,14.80
2023-05-02T14:59:44.360Z,14.30
2023-05-02T15:02:11.724Z,14.30
2023-05-02T15:04:38.917Z,15.00
2023-05-02T15:07:06.373Z,15.60
2023-05-02T15:09:33.437Z,16.10
2023-05-02T15:12:00.473Z,16.10
2023-05-02T15:14:27.586Z,15.90
2023-05-02T15:16:55.033Z,16.20
2023-05-02T15:19:24.112Z,15.40
2023-05-02T15:21:53.414Z,15.20
2023-05-02T15:24:20.513Z,15.70
2023-05-02T15:26:47.873Z,15.10
2023-05-02T15:29:15.259Z,15.00
2023-05-02T15:31:42.538Z,15.10
2023-05-02T15:34:09.786Z,15.50
2023-05-02T15:36:40.769Z,15.80
2023-05-02T15:39:08.164Z,15.90
2023-05-02T15:41:35.360Z,16.00
2023-05-02T15:44:02.619Z,16.20
2023-05-02T15:46:29.676Z,16.30
2023-05-02T15:48:56.832Z,16.10
2023-05-02T15:51:24.045Z,16.20
2023-05-02T15:53:52.605Z,16.00
2023-05-02T15:56:21.684Z,15.90
2023-05-02T15:58:49.062Z,15.80
2023-05-02T16:01:16.413Z,15.70
2023-05-02T16:03:43.684Z,15.40
2023-05-02T16:06:11.049Z,15.20
2023-05-02T16:08:38.309Z,15.40
2023-05-02T16:11:05.411Z,15.30
2023-05-02T16:13:33.174Z,15.30
2023-05-02T16:16:00.429Z,14.70
2023-05-02T16:18:30.065Z,14.70
2023-05-02T16:20:57.576Z,14.90
2023-05-02T16:23:26.028Z,14.90
2023-05-02T16:26:00.181Z,14.90
2023-05-02T16:28:27.497Z,14.80
2023-05-02T16:30:54.767Z,14.70
2023-05-02T16:33:22.538Z,14.80
2023-05-02T16:35:49.832Z,14.70
2023-05-02T16:38:17.190Z,14.20
2023-05-02T16:40:44.293Z,14.00
2023-05-02T16:43:11.470Z,14.10
2023-05-02T16:45:38.847Z,14.00
2023-05-02T16:48:06.976Z,13.90
2023-05-02T16:50:34.077Z,14.00
2023-05-02T16:53:01.148Z,14.00
2023-05-02T16:55:29.350Z,14.00
2023-05-02T16:57:56.600Z,13.70
2023-05-02T17:00:23.887Z,13.60
2023-05-02T17:02:55.310Z,13.50
2023-05-02T17:05:23.048Z,13.50
2023-05-02T17:07:50.110Z,13.50
2023-05-02T17:10:17.259Z,13.50
2023-05-02T17:12:44.589Z,13.30
2023-05-02T17:15:11.711Z,13.20
2023-05-02T17:17:38.805Z,12.90
2023-05-02T17:20:06.566Z,13.00
2023-05-02T17:22:35.866Z,12.80
2023-05-02T17:25:02.984Z,12.70
2023-05-02T17:27:30.064Z,12.70
2023-05-02T17:29:57.158Z,12.60
2023-05-02T17:32:24.315Z,12.40
2023-05-02T17:34:51.513Z,12.40
2023-05-02T17:37:18.609Z,12.40
2023-05-02T17:39:45.994Z,12.30
2023-05-02T17:42:13.025Z,12.20
2023-05-02T17:44:40.121Z,12.00
2023-05-02T17:47:08.512Z,11.90
2023-05-02T17:49:35.730Z,11.90
2023-05-02T17:52:02.749Z,11.90
2023-05-02T17:54:29.844Z,11.70
2023-05-02T17:56:57.439Z,11.60
2023-05-02T17:59:24.495Z,11.60
2023-05-02T18:01:52.155Z,11.50
2023-05-02T18:04:19.397Z,11.40
2023-05-02T18:06:46.545Z,11.30
2023-05-02T18:09:13.620Z,11.20
2023-05-02T18:11:40.728Z,11.20
2023-05-02T18:14:07.789Z,11.20
2023-05-02T18:16:36.478Z,11.10
2023-05-02T18:19:03.801Z,11.00
2023-05-02T18:21:34.981Z,10.90
2023-05-02T18:24:02.058Z,10.80
2023-05-02T18:26:29.084Z,10.70
2023-05-02T18:28:56.133Z,10.70
2023-05-02T18:31:24.013Z,10.50
2023-05-02T18:33:54.149Z,10.40
2023-05-02T18:36:29.568Z,10.30
2023-05-02T18:38:56.727Z,10.20
2023-05-02T18:41:24.055Z,10.10
2023-05-02T18:43:51.114Z,10.00
2023-05-02T18:46:18.200Z,9.90
2023-05-02T18:48:45.323Z,9.80
2023-05-02T18:51:12.505Z,9.70
2023-05-02T18:53:39.521Z,9.70
2023-05-02T18:56:13.535Z,9.60
2023-05-02T18:58:41.446Z,9.50
2023-05-02T19:01:13.332Z,9.50
2023-05-02T19:03:41.008Z,9.40
2023-05-02T19:06:11.902Z,9.30
2023-05-02T19:08:40.540Z,9.20
2023-05-02T19:11:07.800Z,9.10
2023-05-02T19:13:36.493Z,9.00
2023-05-02T19:16:03.986Z,8.90
2023-05-02T19:18:31.144Z,8.80
2023-05-02T19:20:58.726Z,8.80
2023-05-02T19:23:25.751Z,8.70
2023-05-02T19:25:53.071Z,8.60
2023-05-02T19:28:21.928Z,8.50
2023-05-02T19:30:48.977Z,8.40
2023-05-02T19:33:16.061Z,8.30
2023-05-02T19:35:43.131Z,8.30
2023-05-02T19:38:10.156Z,8.20
2023-05-02T19:40:37.261Z,8.10
2023-05-02T19:43:04.947Z,8.10
2023-05-02T19:45:34.138Z,8.00
2023-05-02T19:48:01.281Z,7.90
2023-05-02T19:50:28.303Z,7.90
2023-05-02T19:52:59.047Z,7.80
2023-05-02T19:55:26.096Z,7.70
2023-05-02T19:57:53.096Z,7.70
2023-05-02T20:00:20.207Z,7.60
2023-05-02T20:02:49.947Z,7.60
2023-05-02T20:05:19.568Z,7.50
2023-05-02T20:07:46.761Z,7.50
2023-05-02T20:10:14.134Z,7.50
2023-05-02T20:12:44.938Z,7.40
2023-05-02T20:15:13.158Z,7.30
2023-05-02T20:17:40.446Z,7.30
2023-05-02T20:20:08.587Z,7.20
2023-05-02T20:22:35.828Z,7.20
2023-05-02T20:25:03.770Z,7.10
2023-05-02T20:27:32.168Z,7.10
2023-05-02T20:29:59.668Z,7.10
2023-05-02T20:32:27.159Z,7.00
2023-05-02T20:34:54.278Z,7.00
2023-05-02T20:37:21.441Z,7.00
2023-05-02T20:39:48.840Z,7.00
2023-05-02T20:42:23.294Z,6.90
2023-05-02T20:45:01.904Z,6.90
2023-05-02T20:47:30.403Z,6.80
2023-05-02T20:49:57.631Z,6.80
2023-05-02T20:52:24.683Z,6.80
2023-05-02T20:54:56.066Z,6.70
2023-05-02T20:57:24.388Z,6.70
2023-05-02T20:59:51.557Z,6.70
2023-05-02T21:02:18.646Z,6.80
2023-05-02T21:04:45.931Z,6.70
2023-05-02T21:07:13.023Z,6.70
2023-05-02T21:09:40.050Z,6.70
2023-05-02T21:12:07.103Z,6.70
2023-05-02T21:14:34.455Z,6.70
2023-05-02T21:17:01.646Z,6.70
2023-05-02T21:19:28.684Z,6.80
2023-05-02T21:21:55.991Z,6.80
2023-05-02T21:24:23.050Z,6.70
2023-05-02T21:26:50.088Z,6.70
2023-05-02T21:29:17.339Z,6.70
2023-05-02T21:31:45.101Z,6.70
2023-05-02T21:34:12.211Z,6.70
2023-05-02T21:36:39.272Z,6.60
2023-05-02T21:39:06.365Z,6.50
2023-05-02T21:41:35.530Z,6.50
2023-05-02T21:44:02.569Z,6.50
2023-05-02T21:46:29.658Z,6.40
2023-05-02T21:48:56.978Z,6.40
2023-05-02T21:51:23.983Z,6.40
2023-05-02T21:53:52.693Z,6.30
2023-05-02T21:56:19.728Z,6.30
2023-05-02T21:58:49.736Z,6.20
2023-05-02T22:01:17.272Z,6.20
2023-05-02T22:03:44.486Z,6.20
2023-05-02T22:06:11.517Z,6.20
2023-05-02T22:08:39.140Z,6.20
2023-05-02T22:11:09.561Z,6.10
2023-05-02T22:13:37.119Z,6.10
2023-05-02T22:16:04.533Z,6.10
2023-05-02T22:18:31.676Z,6.10
2023-05-02T22:20:58.769Z,6.00
2023-05-02T22:23:26.073Z,6.00
2023-05-02T22:25:53.134Z,6.00
2023-05-02T22:28:20.490Z,5.90
2023-05-02T22:30:47.623Z,5.90
2023-05-02T22:33:14.746Z,5.90
2023-05-02T22:35:41.858Z,5.90
2023-05-02T22:38:11.906Z,5.80
2023-05-02T22:40:38.969Z,5.80
2023-05-02T22:43:06.033Z,5.80
2023-05-02T22:45:34.019Z,5.80
2023-05-02T22:48:01.067Z,5.80
2023-05-02T22:50:28.447Z,5.80
2023-05-02T22:52:57.361Z,5.80
2023-05-02T22:55:24.912Z,5.80
2023-05-02T22:57:52.253Z,5.70
2023-05-02T23:00:19.634Z,5.70
2023-05-02T23:02:46.813Z,5.70
2023-05-02T23:05:14.348Z,5.60
2023-05-02T23:07:41.439Z,5.60
2023-05-02T23:10:09.662Z,5.60
2023-05-02T23:12:36.733Z,5.60
2023-05-02T23:15:03.967Z,5.50
2023-05-02T23:17:31.127Z,5.40
2023-05-02T23:19:58.959Z,5.30
2023-05-02T23:22:26.091Z,5.30
2023-05-02T23:24:53.168Z,5.20
2023-05-02T23:27:20.127Z,5.30
2023-05-02T23:29:49.153Z,5.30
2023-05-02T23:32:17.353Z,5.20
2023-05-02T23:34:44.692Z,5.20
2023-05-02T23:37:12.905Z,5.10
2023-05-02T23:39:40.345Z,5.10
2023-05-02T23:42:08.106Z,5.00
2023-05-02T23:44:35.211Z,5.00
2023-05-02T23:47:02.309Z,5.00
2023-05-02T23:49:29.428Z,5.00
2023-05-02T23:51:56.698Z,5.00
2023-05-02T23:54:23.832Z,5.00
2023-05-02T23:56:53.003Z,5.00
2023-05-02T23:59:20.057Z,4.90
